sensor_id;sensor_type;location;lat;lon;timestamp;P1;durP1;ratioP1;P2;durP2;ratioP2
12127;SDS011;6127;57.702;11.904;2023-05-07T00:08:18;0.50;;;0.50;;
12127;SDS011;6127;57.702;11.904;2023-05-07T00:10:45;0.30;;;0.30;;
12127;SDS011;6127;57.702;11.904;2023-05-07T00:13:11;0.32;;;0.32;;
12127;SDS011;6127;57.702;11.904;2023-05-07T00:15:38;0.40;;;0.40;;
12127;SDS011;6127;57.702;11.904;2023-05-07T00:18:04;0.40;;;0.40;;
12127;SDS011;6127;57.702;11.904;2023-05-07T00:20:30;0.50;;;0.50;;
12127;SDS011;6127;57.702;11.904;2023-05-07T00:22:56;0.60;;;0.60;;
12127;SDS011;6127;57.702;11.904;2023-05-07T00:25:23;0.30;;;0.30;;
12127;SDS011;6127;57.702;11.904;2023-05-07T00:27:49;0.30;;;0.30;;
12127;SDS011;6127;57.702;11.904;2023-05-07T00:30:15;0.40;;;0.40;;
12127;SDS011;6127;57.702;11.904;2023-05-07T00:32:41;0.50;;;0.50;;
12127;SDS011;6127;57.702;11.904;2023-05-07T00:35:10;0.50;;;0.50;;
12127;SDS011;6127;57.702;11.904;2023-05-07T00:37:36;0.60;;;0.60;;
12127;SDS011;6127;57.702;11.904;2023-05-07T00:40:02;0.30;;;0.30;;
12127;SDS011;6127;57.702;11.904;2023-05-07T00:42:32;0.30;;;0.30;;
12127;SDS011;6127;57.702;11.904;2023-05-07T00:44:58;0.40;;;0.40;;
12127;SDS011;6127;57.702;11.904;2023-05-07T00:47:24;0.50;;;0.50;;
12127;SDS011;6127;57.702;11.904;2023-05-07T00:49:51;0.50;;;0.50;;
12127;SDS011;6127;57.702;11.904;2023-05-07T00:52:17;0.40;;;0.40;;
12127;SDS011;6127;57.702;11.904;2023-05-07T00:54:45;0.30;;;0.30;;
12127;SDS011;6127;57.702;11.904;2023-05-07T00:57:12;0.40;;;0.40;;
12127;SDS011;6127;57.702;11.904;2023-05-07T00:59:38;0.40;;;0.40;;
12127;SDS011;6127;57.702;11.904;2023-05-07T01:02:05;0.50;;;0.50;;
12127;SDS011;6127;57.702;11.904;2023-05-07T01:22:47;0.30;;;0.30;;
12127;SDS011;6127;57.702;11.904;2023-05-07T01:25:14;0.30;;;0.30;;
12127;SDS011;6127;57.702;11.904;2023-05-07T01:27:41;0.40;;;0.40;;
12127;SDS011;6127;57.702;11.904;2023-05-07T01:30:07;0.30;;;0.30;;
12127;SDS011;6127;57.702;11.904;2023-05-07T01:48:00;0.50;;;0.50;;
12127;SDS011;6127;57.702;11.904;2023-05-07T01:55:38;0.30;;;0.30;;
12127;SDS011;6127;57.702;11.904;2023-05-07T01:58:05;0.40;;;0.40;;
12127;SDS011;6127;57.702;11.904;2023-05-07T02:00:31;0.50;;;0.50;;
12127;SDS011;6127;57.702;11.904;2023-05-07T02:02:57;0.60;;;0.60;;
12127;SDS011;6127;57.702;11.904;2023-05-07T02:05:23;0.30;;;0.30;;
12127;SDS011;6127;57.702;11.904;2023-05-07T02:07:49;0.40;;;0.40;;
12127;SDS011;6127;57.702;11.904;2023-05-07T02:10:16;0.50;;;0.50;;
12127;SDS011;6127;57.702;11.904;2023-05-07T02:12:42;0.55;;;0.55;;
12127;SDS011;6127;57.702;11.904;2023-05-07T02:15:08;0.43;;;0.43;;
12127;SDS011;6127;57.702;11.904;2023-05-07T02:17:35;0.40;;;0.40;;
12127;SDS011;6127;57.702;11.904;2023-05-07T02:20:02;0.40;;;0.40;;
12127;SDS011;6127;57.702;11.904;2023-05-07T02:22:28;0.50;;;0.50;;
12127;SDS011;6127;57.702;11.904;2023-05-07T02:24:55;0.50;;;0.50;;
12127;SDS011;6127;57.702;11.904;2023-05-07T02:27:21;0.30;;;0.30;;
12127;SDS011;6127;57.702;11.904;2023-05-07T02:29:47;0.40;;;0.40;;
12127;SDS011;6127;57.702;11.904;2023-05-07T02:32:14;0.50;;;0.50;;
12127;SDS011;6127;57.702;11.904;2023-05-07T02:37:23;0.40;;;0.40;;
12127;SDS011;6127;57.702;11.904;2023-05-07T02:39:49;0.40;;;0.40;;
12127;SDS011;6127;57.702;11.904;2023-05-07T02:42:16;0.50;;;0.50;;
12127;SDS011;6127;57.702;11.904;2023-05-07T02:44:42;0.50;;;0.50;;
12127;SDS011;6127;57.702;11.904;2023-05-07T02:47:08;0.30;;;0.30;;
12127;SDS011;6127;57.702;11.904;2023-05-07T02:49:35;0.40;;;0.40;;
12127;SDS011;6127;57.702;11.904;2023-05-07T02:52:01;0.50;;;0.50;;
12127;SDS011;6127;57.702;11.904;2023-05-07T02:54:27;0.60;;;0.60;;
12127;SDS011;6127;57.702;11.904;2023-05-07T02:56:53;0.30;;;0.30;;
12127;SDS011;6127;57.702;11.904;2023-05-07T02:59:19;0.50;;;0.50;;
12127;SDS011;6127;57.702;11.904;2023-05-07T03:01:46;0.50;;;0.50;;
12127;SDS011;6127;57.702;11.904;2023-05-07T03:04:13;0.35;;;0.35;;
12127;SDS011;6127;57.702;11.904;2023-05-07T03:06:39;0.40;;;0.40;;
12127;SDS011;6127;57.702;11.904;2023-05-07T03:09:05;0.40;;;0.40;;
12127;SDS011;6127;57.702;11.904;2023-05-07T03:11:32;0.60;;;0.60;;
12127;SDS011;6127;57.702;11.904;2023-05-07T03:13:58;0.30;;;0.30;;
12127;SDS011;6127;57.702;11.904;2023-05-07T03:16:24;0.40;;;0.40;;
12127;SDS011;6127;57.702;11.904;2023-05-07T03:18:50;0.50;;;0.50;;
12127;SDS011;6127;57.702;11.904;2023-05-07T03:21:16;0.40;;;0.40;;
12127;SDS011;6127;57.702;11.904;2023-05-07T03:23:42;0.40;;;0.40;;
12127;SDS011;6127;57.702;11.904;2023-05-07T03:26:08;0.50;;;0.50;;
12127;SDS011;6127;57.702;11.904;2023-05-07T03:28:34;0.57;;;0.57;;
12127;SDS011;6127;57.702;11.904;2023-05-07T03:31:01;0.30;;;0.30;;
12127;SDS011;6127;57.702;11.904;2023-05-07T03:33:27;0.40;;;0.40;;
12127;SDS011;6127;57.702;11.904;2023-05-07T03:35:53;0.50;;;0.50;;
12127;SDS011;6127;57.702;11.904;2023-05-07T03:38:19;0.40;;;0.40;;
12127;SDS011;6127;57.702;11.904;2023-05-07T03:40:45;0.40;;;0.40;;
12127;SDS011;6127;57.702;11.904;2023-05-07T03:43:11;0.50;;;0.50;;
12127;SDS011;6127;57.702;11.904;2023-05-07T03:45:38;0.50;;;0.50;;
12127;SDS011;6127;57.702;11.904;2023-05-07T03:48:04;0.30;;;0.30;;
12127;SDS011;6127;57.702;11.904;2023-05-07T03:50:30;0.40;;;0.40;;
12127;SDS011;6127;57.702;11.904;2023-05-07T03:52:56;0.50;;;0.50;;
12127;SDS011;6127;57.702;11.904;2023-05-07T03:55:22;0.50;;;0.50;;
12127;SDS011;6127;57.702;11.904;2023-05-07T03:57:49;0.30;;;0.30;;
12127;SDS011;6127;57.702;11.904;2023-05-07T04:00:15;0.40;;;0.40;;
12127;SDS011;6127;57.702;11.904;2023-05-07T04:02:41;0.50;;;0.50;;
12127;SDS011;6127;57.702;11.904;2023-05-07T04:07:43;0.30;;;0.30;;
12127;SDS011;6127;57.702;11.904;2023-05-07T04:10:09;0.40;;;0.40;;
12127;SDS011;6127;57.702;11.904;2023-05-07T04:12:35;0.50;;;0.50;;
12127;SDS011;6127;57.702;11.904;2023-05-07T04:15:02;0.30;;;0.30;;
12127;SDS011;6127;57.702;11.904;2023-05-07T04:17:28;0.40;;;0.40;;
12127;SDS011;6127;57.702;11.904;2023-05-07T04:19:54;0.50;;;0.50;;
12127;SDS011;6127;57.702;11.904;2023-05-07T04:22:21;0.60;;;0.60;;
12127;SDS011;6127;57.702;11.904;2023-05-07T04:24:47;0.30;;;0.30;;
12127;SDS011;6127;57.702;11.904;2023-05-07T04:27:13;0.50;;;0.50;;
12127;SDS011;6127;57.702;11.904;2023-05-07T04:29:39;0.50;;;0.50;;
12127;SDS011;6127;57.702;11.904;2023-05-07T04:32:07;0.40;;;0.40;;
12127;SDS011;6127;57.702;11.904;2023-05-07T04:34:33;0.40;;;0.40;;
12127;SDS011;6127;57.702;11.904;2023-05-07T04:37:00;0.40;;;0.40;;
12127;SDS011;6127;57.702;11.904;2023-05-07T04:39:26;0.50;;;0.50;;
12127;SDS011;6127;57.702;11.904;2023-05-07T04:41:52;0.40;;;0.40;;
12127;SDS011;6127;57.702;11.904;2023-05-07T04:44:19;0.40;;;0.40;;
12127;SDS011;6127;57.702;11.904;2023-05-07T04:46:45;0.40;;;0.40;;
12127;SDS011;6127;57.702;11.904;2023-05-07T04:49:11;0.50;;;0.50;;
12127;SDS011;6127;57.702;11.904;2023-05-07T04:51:37;0.50;;;0.50;;
12127;SDS011;6127;57.702;11.904;2023-05-07T04:54:03;0.30;;;0.30;;
12127;SDS011;6127;57.702;11.904;2023-05-07T04:56:29;0.50;;;0.50;;
12127;SDS011;6127;57.702;11.904;2023-05-07T04:58:56;0.50;;;0.50;;
12127;SDS011;6127;57.702;11.904;2023-05-07T05:01:22;0.60;;;0.60;;
12127;SDS011;6127;57.702;11.904;2023-05-07T05:03:48;0.40;;;0.40;;
12127;SDS011;6127;57.702;11.904;2023-05-07T05:21:49;0.50;;;0.50;;
12127;SDS011;6127;57.702;11.904;2023-05-07T05:24:15;0.50;;;0.50;;
12127;SDS011;6127;57.702;11.904;2023-05-07T05:26:41;0.30;;;0.30;;
12127;SDS011;6127;57.702;11.904;2023-05-07T05:29:08;0.30;;;0.30;;
12127;SDS011;6127;57.702;11.904;2023-05-07T05:31:34;0.40;;;0.40;;
12127;SDS011;6127;57.702;11.904;2023-05-07T05:34:02;0.50;;;0.50;;
12127;SDS011;6127;57.702;11.904;2023-05-07T05:39:04;0.40;;;0.40;;
12127;SDS011;6127;57.702;11.904;2023-05-07T05:41:30;0.30;;;0.30;;
12127;SDS011;6127;57.702;11.904;2023-05-07T05:43:57;0.40;;;0.40;;
12127;SDS011;6127;57.702;11.904;2023-05-07T05:46:23;0.50;;;0.50;;
12127;SDS011;6127;57.702;11.904;2023-05-07T05:48:49;0.50;;;0.50;;
12127;SDS011;6127;57.702;11.904;2023-05-07T05:51:15;0.40;;;0.40;;
12127;SDS011;6127;57.702;11.904;2023-05-07T05:53:41;0.30;;;0.30;;
12127;SDS011;6127;57.702;11.904;2023-05-07T05:56:07;0.40;;;0.40;;
12127;SDS011;6127;57.702;11.904;2023-05-07T05:58:33;0.50;;;0.50;;
12127;SDS011;6127;57.702;11.904;2023-05-07T06:01:00;0.50;;;0.50;;
12127;SDS011;6127;57.702;11.904;2023-05-07T06:03:27;0.50;;;0.50;;
12127;SDS011;6127;57.702;11.904;2023-05-07T06:05:53;0.30;;;0.30;;
12127;SDS011;6127;57.702;11.904;2023-05-07T06:08:20;0.40;;;0.40;;
12127;SDS011;6127;57.702;11.904;2023-05-07T06:10:46;0.50;;;0.50;;
12127;SDS011;6127;57.702;11.904;2023-05-07T06:13:12;0.50;;;0.50;;
12127;SDS011;6127;57.702;11.904;2023-05-07T06:15:38;0.50;;;0.50;;
12127;SDS011;6127;57.702;11.904;2023-05-07T06:18:04;0.30;;;0.30;;
12127;SDS011;6127;57.702;11.904;2023-05-07T06:23:05;0.35;;;0.35;;
12127;SDS011;6127;57.702;11.904;2023-05-07T06:25:31;0.40;;;0.40;;
12127;SDS011;6127;57.702;11.904;2023-05-07T06:27:58;0.43;;;0.43;;
12127;SDS011;6127;57.702;11.904;2023-05-07T06:30:24;0.50;;;0.50;;
12127;SDS011;6127;57.702;11.904;2023-05-07T06:32:51;0.60;;;0.60;;
12127;SDS011;6127;57.702;11.904;2023-05-07T06:35:17;0.38;;;0.38;;
12127;SDS011;6127;57.702;11.904;2023-05-07T06:37:44;0.30;;;0.30;;
12127;SDS011;6127;57.702;11.904;2023-05-07T06:40:10;0.30;;;0.30;;
12127;SDS011;6127;57.702;11.904;2023-05-07T06:42:37;0.40;;;0.40;;
12127;SDS011;6127;57.702;11.904;2023-05-07T06:45:04;0.40;;;0.40;;
12127;SDS011;6127;57.702;11.904;2023-05-07T06:47:30;0.50;;;0.50;;
12127;SDS011;6127;57.702;11.904;2023-05-07T06:49:56;0.50;;;0.50;;
12127;SDS011;6127;57.702;11.904;2023-05-07T06:52:22;0.50;;;0.50;;
12127;SDS011;6127;57.702;11.904;2023-05-07T06:54:48;0.30;;;0.30;;
12127;SDS011;6127;57.702;11.904;2023-05-07T06:57:14;0.30;;;0.30;;
12127;SDS011;6127;57.702;11.904;2023-05-07T06:59:40;0.30;;;0.30;;
12127;SDS011;6127;57.702;11.904;2023-05-07T07:02:06;0.30;;;0.30;;
12127;SDS011;6127;57.702;11.904;2023-05-07T07:04:33;0.32;;;0.32;;
12127;SDS011;6127;57.702;11.904;2023-05-07T07:22:34;0.30;;;0.30;;
12127;SDS011;6127;57.702;11.904;2023-05-07T07:25:00;0.30;;;0.30;;
12127;SDS011;6127;57.702;11.904;2023-05-07T07:27:26;0.40;;;0.40;;
12127;SDS011;6127;57.702;11.904;2023-05-07T07:29:52;0.40;;;0.40;;
12127;SDS011;6127;57.702;11.904;2023-05-07T07:32:18;0.40;;;0.40;;
12127;SDS011;6127;57.702;11.904;2023-05-07T07:34:44;0.40;;;0.40;;
12127;SDS011;6127;57.702;11.904;2023-05-07T07:39:45;0.35;;;0.35;;
12127;SDS011;6127;57.702;11.904;2023-05-07T07:42:11;0.40;;;0.40;;
12127;SDS011;6127;57.702;11.904;2023-05-07T07:44:37;0.40;;;0.40;;
12127;SDS011;6127;57.702;11.904;2023-05-07T07:47:04;0.40;;;0.40;;
12127;SDS011;6127;57.702;11.904;2023-05-07T07:49:30;0.40;;;0.40;;
12127;SDS011;6127;57.702;11.904;2023-05-07T07:51:56;0.40;;;0.40;;
12127;SDS011;6127;57.702;11.904;2023-05-07T07:54:24;0.40;;;0.40;;
12127;SDS011;6127;57.702;11.904;2023-05-07T07:56:50;0.40;;;0.40;;
12127;SDS011;6127;57.702;11.904;2023-05-07T07:59:16;0.40;;;0.40;;
12127;SDS011;6127;57.702;11.904;2023-05-07T08:01:44;0.30;;;0.30;;
12127;SDS011;6127;57.702;11.904;2023-05-07T08:04:10;0.35;;;0.35;;
12127;SDS011;6127;57.702;11.904;2023-05-07T08:22:11;0.40;;;0.40;;
12127;SDS011;6127;57.702;11.904;2023-05-07T08:24:37;0.30;;;0.30;;
12127;SDS011;6127;57.702;11.904;2023-05-07T08:27:03;0.30;;;0.30;;
12127;SDS011;6127;57.702;11.904;2023-05-07T08:29:29;0.30;;;0.30;;
12127;SDS011;6127;57.702;11.904;2023-05-07T08:31:55;0.20;;;0.20;;
12127;SDS011;6127;57.702;11.904;2023-05-07T08:34:22;0.30;;;0.30;;
12127;SDS011;6127;57.702;11.904;2023-05-07T08:36:48;0.40;;;0.40;;
12127;SDS011;6127;57.702;11.904;2023-05-07T08:39:17;0.30;;;0.30;;
12127;SDS011;6127;57.702;11.904;2023-05-07T08:41:46;0.30;;;0.30;;
12127;SDS011;6127;57.702;11.904;2023-05-07T08:44:13;0.20;;;0.20;;
12127;SDS011;6127;57.702;11.904;2023-05-07T08:46:40;0.30;;;0.30;;
12127;SDS011;6127;57.702;11.904;2023-05-07T08:49:08;0.40;;;0.40;;
12127;SDS011;6127;57.702;11.904;2023-05-07T08:51:34;0.20;;;0.20;;
12127;SDS011;6127;57.702;11.904;2023-05-07T08:54:01;0.30;;;0.30;;
12127;SDS011;6127;57.702;11.904;2023-05-07T08:56:27;0.10;;;0.10;;
12127;SDS011;6127;57.702;11.904;2023-05-07T08:58:53;0.13;;;0.13;;
12127;SDS011;6127;57.702;11.904;2023-05-07T09:01:23;0.10;;;0.10;;
12127;SDS011;6127;57.702;11.904;2023-05-07T09:03:50;0.10;;;0.10;;
12127;SDS011;6127;57.702;11.904;2023-05-07T09:06:16;0.10;;;0.10;;
12127;SDS011;6127;57.702;11.904;2023-05-07T09:08:44;0.20;;;0.20;;
12127;SDS011;6127;57.702;11.904;2023-05-07T09:11:14;0.10;;;0.10;;
12127;SDS011;6127;57.702;11.904;2023-05-07T09:13:40;0.20;;;0.20;;
12127;SDS011;6127;57.702;11.904;2023-05-07T09:16:10;0.10;;;0.10;;
12127;SDS011;6127;57.702;11.904;2023-05-07T09:18:40;0.10;;;0.10;;
12127;SDS011;6127;57.702;11.904;2023-05-07T09:21:06;0.10;;;0.10;;
12127;SDS011;6127;57.702;11.904;2023-05-07T09:23:35;0.10;;;0.10;;
12127;SDS011;6127;57.702;11.904;2023-05-07T09:26:01;0.20;;;0.20;;
12127;SDS011;6127;57.702;11.904;2023-05-07T09:28:27;0.10;;;0.10;;
12127;SDS011;6127;57.702;11.904;2023-05-07T09:30:54;0.10;;;0.10;;
12127;SDS011;6127;57.702;11.904;2023-05-07T09:33:21;0.10;;;0.10;;
12127;SDS011;6127;57.702;11.904;2023-05-07T09:35:48;0.20;;;0.20;;
12127;SDS011;6127;57.702;11.904;2023-05-07T09:38:27;0.10;;;0.10;;
12127;SDS011;6127;57.702;11.904;2023-05-07T09:41:04;0.10;;;0.10;;
12127;SDS011;6127;57.702;11.904;2023-05-07T09:43:36;0.10;;;0.10;;
12127;SDS011;6127;57.702;11.904;2023-05-07T09:46:07;0.10;;;0.10;;
12127;SDS011;6127;57.702;11.904;2023-05-07T09:48:37;0.00;;;0.00;;
12127;SDS011;6127;57.702;11.904;2023-05-07T09:51:06;0.10;;;0.10;;
12127;SDS011;6127;57.702;11.904;2023-05-07T09:53:36;0.00;;;0.00;;
12127;SDS011;6127;57.702;11.904;2023-05-07T09:56:03;0.10;;;0.10;;
12127;SDS011;6127;57.702;11.904;2023-05-07T09:58:30;0.10;;;0.10;;
12127;SDS011;6127;57.702;11.904;2023-05-07T10:00:57;0.10;;;0.10;;
12127;SDS011;6127;57.702;11.904;2023-05-07T10:03:24;0.10;;;0.10;;
12127;SDS011;6127;57.702;11.904;2023-05-07T10:08:20;0.10;;;0.10;;
12127;SDS011;6127;57.702;11.904;2023-05-07T10:10:46;0.10;;;0.10;;
12127;SDS011;6127;57.702;11.904;2023-05-07T10:13:12;0.10;;;0.10;;
12127;SDS011;6127;57.702;11.904;2023-05-07T10:15:39;0.10;;;0.10;;
12127;SDS011;6127;57.702;11.904;2023-05-07T10:18:05;0.10;;;0.10;;
12127;SDS011;6127;57.702;11.904;2023-05-07T10:20:32;0.10;;;0.10;;
12127;SDS011;6127;57.702;11.904;2023-05-07T10:22:59;0.10;;;0.10;;
12127;SDS011;6127;57.702;11.904;2023-05-07T10:25:28;0.10;;;0.10;;
12127;SDS011;6127;57.702;11.904;2023-05-07T10:27:55;0.10;;;0.10;;
12127;SDS011;6127;57.702;11.904;2023-05-07T10:30:25;0.10;;;0.10;;
12127;SDS011;6127;57.702;11.904;2023-05-07T10:32:54;0.10;;;0.10;;
12127;SDS011;6127;57.702;11.904;2023-05-07T10:35:23;0.10;;;0.10;;
12127;SDS011;6127;57.702;11.904;2023-05-07T10:37:50;0.10;;;0.10;;
12127;SDS011;6127;57.702;11.904;2023-05-07T10:40:16;0.10;;;0.10;;
12127;SDS011;6127;57.702;11.904;2023-05-07T10:42:57;0.10;;;0.10;;
12127;SDS011;6127;57.702;11.904;2023-05-07T10:45:24;0.10;;;0.10;;
12127;SDS011;6127;57.702;11.904;2023-05-07T10:50:39;0.10;;;0.10;;
12127;SDS011;6127;57.702;11.904;2023-05-07T10:55:48;0.10;;;0.10;;
12127;SDS011;6127;57.702;11.904;2023-05-07T11:00:47;0.10;;;0.10;;
12127;SDS011;6127;57.702;11.904;2023-05-07T11:03:13;0.10;;;0.10;;
12127;SDS011;6127;57.702;11.904;2023-05-07T11:05:40;0.10;;;0.10;;
12127;SDS011;6127;57.702;11.904;2023-05-07T11:13:15;0.10;;;0.10;;
12127;SDS011;6127;57.702;11.904;2023-05-07T11:15:42;0.10;;;0.10;;
12127;SDS011;6127;57.702;11.904;2023-05-07T11:18:09;0.10;;;0.10;;
12127;SDS011;6127;57.702;11.904;2023-05-07T11:26:09;0.10;;;0.10;;
12127;SDS011;6127;57.702;11.904;2023-05-07T11:28:40;0.20;;;0.20;;
12127;SDS011;6127;57.702;11.904;2023-05-07T11:31:06;0.10;;;0.10;;
12127;SDS011;6127;57.702;11.904;2023-05-07T11:33:33;0.10;;;0.10;;
12127;SDS011;6127;57.702;11.904;2023-05-07T11:38:35;0.10;;;0.10;;
12127;SDS011;6127;57.702;11.904;2023-05-07T11:41:02;0.10;;;0.10;;
12127;SDS011;6127;57.702;11.904;2023-05-07T11:43:30;0.10;;;0.10;;
12127;SDS011;6127;57.702;11.904;2023-05-07T11:46:04;0.10;;;0.10;;
12127;SDS011;6127;57.702;11.904;2023-05-07T11:48:31;0.10;;;0.10;;
12127;SDS011;6127;57.702;11.904;2023-05-07T11:53:37;0.10;;;0.10;;
12127;SDS011;6127;57.702;11.904;2023-05-07T11:56:07;0.10;;;0.10;;
12127;SDS011;6127;57.702;11.904;2023-05-07T11:58:33;0.10;;;0.10;;
12127;SDS011;6127;57.702;11.904;2023-05-07T12:00:59;0.10;;;0.10;;
12127;SDS011;6127;57.702;11.904;2023-05-07T12:03:25;0.10;;;0.10;;
12127;SDS011;6127;57.702;11.904;2023-05-07T12:05:51;0.10;;;0.10;;
12127;SDS011;6127;57.702;11.904;2023-05-07T12:08:18;0.10;;;0.10;;
12127;SDS011;6127;57.702;11.904;2023-05-07T12:10:44;0.10;;;0.10;;
12127;SDS011;6127;57.702;11.904;2023-05-07T12:13:16;0.10;;;0.10;;
12127;SDS011;6127;57.702;11.904;2023-05-07T12:15:43;0.10;;;0.10;;
12127;SDS011;6127;57.702;11.904;2023-05-07T12:18:09;0.15;;;0.15;;
12127;SDS011;6127;57.702;11.904;2023-05-07T12:20:36;0.20;;;0.20;;
12127;SDS011;6127;57.702;11.904;2023-05-07T12:38:33;0.10;;;0.10;;
12127;SDS011;6127;57.702;11.904;2023-05-07T12:40:59;0.10;;;0.10;;
12127;SDS011;6127;57.702;11.904;2023-05-07T12:43:26;0.20;;;0.20;;
12127;SDS011;6127;57.702;11.904;2023-05-07T12:45:53;0.10;;;0.10;;
12127;SDS011;6127;57.702;11.904;2023-05-07T12:48:20;0.20;;;0.20;;
12127;SDS011;6127;57.702;11.904;2023-05-07T12:50:50;0.10;;;0.10;;
12127;SDS011;6127;57.702;11.904;2023-05-07T12:53:16;0.20;;;0.20;;
12127;SDS011;6127;57.702;11.904;2023-05-07T12:55:45;0.20;;;0.20;;
12127;SDS011;6127;57.702;11.904;2023-05-07T12:58:22;0.15;;;0.15;;
12127;SDS011;6127;57.702;11.904;2023-05-07T13:00:49;0.20;;;0.20;;
12127;SDS011;6127;57.702;11.904;2023-05-07T13:03:26;0.20;;;0.20;;
12127;SDS011;6127;57.702;11.904;2023-05-07T13:05:52;0.28;;;0.28;;
12127;SDS011;6127;57.702;11.904;2023-05-07T13:10:59;0.22;;;0.22;;
12127;SDS011;6127;57.702;11.904;2023-05-07T13:13:29;0.20;;;0.20;;
12127;SDS011;6127;57.702;11.904;2023-05-07T13:15:55;0.20;;;0.20;;
12127;SDS011;6127;57.702;11.904;2023-05-07T13:18:21;0.20;;;0.20;;
12127;SDS011;6127;57.702;11.904;2023-05-07T13:20:47;0.30;;;0.30;;
12127;SDS011;6127;57.702;11.904;2023-05-07T13:23:14;0.20;;;0.20;;
12127;SDS011;6127;57.702;11.904;2023-05-07T13:25:40;0.17;;;0.17;;
12127;SDS011;6127;57.702;11.904;2023-05-07T13:28:06;0.20;;;0.20;;
12127;SDS011;6127;57.702;11.904;2023-05-07T13:30:32;0.20;;;0.20;;
12127;SDS011;6127;57.702;11.904;2023-05-07T13:32:58;0.20;;;0.20;;
12127;SDS011;6127;57.702;11.904;2023-05-07T13:35:25;0.23;;;0.23;;
12127;SDS011;6127;57.702;11.904;2023-05-07T13:53:26;0.15;;;0.15;;
12127;SDS011;6127;57.702;11.904;2023-05-07T13:55:52;0.10;;;0.10;;
12127;SDS011;6127;57.702;11.904;2023-05-07T13:58:18;0.10;;;0.10;;
12127;SDS011;6127;57.702;11.904;2023-05-07T14:00:44;0.10;;;0.10;;
12127;SDS011;6127;57.702;11.904;2023-05-07T14:03:10;0.10;;;0.10;;
12127;SDS011;6127;57.702;11.904;2023-05-07T14:05:36;0.20;;;0.20;;
12127;SDS011;6127;57.702;11.904;2023-05-07T14:08:02;0.20;;;0.20;;
12127;SDS011;6127;57.702;11.904;2023-05-07T14:10:29;0.17;;;0.17;;
12127;SDS011;6127;57.702;11.904;2023-05-07T14:12:56;0.20;;;0.20;;
12127;SDS011;6127;57.702;11.904;2023-05-07T14:15:22;0.20;;;0.20;;
12127;SDS011;6127;57.702;11.904;2023-05-07T14:17:48;0.20;;;0.20;;
12127;SDS011;6127;57.702;11.904;2023-05-07T14:20:14;0.30;;;0.30;;
12127;SDS011;6127;57.702;11.904;2023-05-07T14:22:40;0.20;;;0.20;;
12127;SDS011;6127;57.702;11.904;2023-05-07T14:25:07;0.20;;;0.20;;
12127;SDS011;6127;57.702;11.904;2023-05-07T14:27:34;0.10;;;0.10;;
12127;SDS011;6127;57.702;11.904;2023-05-07T14:30:00;0.10;;;0.10;;
12127;SDS011;6127;57.702;11.904;2023-05-07T14:32:27;0.10;;;0.10;;
12127;SDS011;6127;57.702;11.904;2023-05-07T14:34:53;0.10;;;0.10;;
12127;SDS011;6127;57.702;11.904;2023-05-07T14:37:19;0.20;;;0.20;;
12127;SDS011;6127;57.702;11.904;2023-05-07T14:39:45;0.13;;;0.13;;
12127;SDS011;6127;57.702;11.904;2023-05-07T14:42:11;0.10;;;0.10;;
12127;SDS011;6127;57.702;11.904;2023-05-07T14:44:37;0.20;;;0.20;;
12127;SDS011;6127;57.702;11.904;2023-05-07T14:47:06;0.10;;;0.10;;
12127;SDS011;6127;57.702;11.904;2023-05-07T14:49:33;0.10;;;0.10;;
12127;SDS011;6127;57.702;11.904;2023-05-07T15:07:34;0.30;;;0.30;;
12127;SDS011;6127;57.702;11.904;2023-05-07T15:10:00;0.30;;;0.30;;
12127;SDS011;6127;57.702;11.904;2023-05-07T15:12:26;0.20;;;0.20;;
12127;SDS011;6127;57.702;11.904;2023-05-07T15:14:52;0.20;;;0.20;;
12127;SDS011;6127;57.702;11.904;2023-05-07T15:17:18;0.10;;;0.10;;
12127;SDS011;6127;57.702;11.904;2023-05-07T15:19:44;0.10;;;0.10;;
12127;SDS011;6127;57.702;11.904;2023-05-07T15:22:10;0.20;;;0.20;;
12127;SDS011;6127;57.702;11.904;2023-05-07T15:24:36;0.20;;;0.20;;
12127;SDS011;6127;57.702;11.904;2023-05-07T15:27:02;0.10;;;0.10;;
12127;SDS011;6127;57.702;11.904;2023-05-07T15:29:28;0.10;;;0.10;;
12127;SDS011;6127;57.702;11.904;2023-05-07T15:31:55;0.20;;;0.20;;
12127;SDS011;6127;57.702;11.904;2023-05-07T15:34:21;0.25;;;0.25;;
12127;SDS011;6127;57.702;11.904;2023-05-07T15:39:24;0.30;;;0.30;;
12127;SDS011;6127;57.702;11.904;2023-05-07T15:41:51;0.20;;;0.20;;
12127;SDS011;6127;57.702;11.904;2023-05-07T15:44:17;0.25;;;0.25;;
12127;SDS011;6127;57.702;11.904;2023-05-07T15:46:43;0.20;;;0.20;;
12127;SDS011;6127;57.702;11.904;2023-05-07T15:49:09;0.28;;;0.28;;
12127;SDS011;6127;57.702;11.904;2023-05-07T15:51:35;0.20;;;0.20;;
12127;SDS011;6127;57.702;11.904;2023-05-07T15:54:01;0.20;;;0.20;;
12127;SDS011;6127;57.702;11.904;2023-05-07T15:56:27;0.30;;;0.30;;
12127;SDS011;6127;57.702;11.904;2023-05-07T15:58:53;0.25;;;0.25;;
12127;SDS011;6127;57.702;11.904;2023-05-07T16:01:19;0.20;;;0.20;;
12127;SDS011;6127;57.702;11.904;2023-05-07T16:03:45;0.30;;;0.30;;
12127;SDS011;6127;57.702;11.904;2023-05-07T16:06:11;0.28;;;0.28;;
12127;SDS011;6127;57.702;11.904;2023-05-07T16:08:37;0.20;;;0.20;;
12127;SDS011;6127;57.702;11.904;2023-05-07T16:11:08;0.20;;;0.20;;
12127;SDS011;6127;57.702;11.904;2023-05-07T16:13:34;0.20;;;0.20;;
12127;SDS011;6127;57.702;11.904;2023-05-07T16:16:01;0.10;;;0.10;;
12127;SDS011;6127;57.702;11.904;2023-05-07T16:18:27;0.10;;;0.10;;
12127;SDS011;6127;57.702;11.904;2023-05-07T16:20:53;0.10;;;0.10;;
12127;SDS011;6127;57.702;11.904;2023-05-07T16:23:19;0.10;;;0.10;;
12127;SDS011;6127;57.702;11.904;2023-05-07T16:25:46;0.10;;;0.10;;
12127;SDS011;6127;57.702;11.904;2023-05-07T16:28:12;0.10;;;0.10;;
12127;SDS011;6127;57.702;11.904;2023-05-07T16:30:38;0.10;;;0.10;;
12127;SDS011;6127;57.702;11.904;2023-05-07T16:33:04;0.10;;;0.10;;
12127;SDS011;6127;57.702;11.904;2023-05-07T16:35:32;0.10;;;0.10;;
12127;SDS011;6127;57.702;11.904;2023-05-07T16:37:58;0.10;;;0.10;;
12127;SDS011;6127;57.702;11.904;2023-05-07T16:40:24;0.10;;;0.10;;
12127;SDS011;6127;57.702;11.904;2023-05-07T16:42:52;0.17;;;0.17;;
12127;SDS011;6127;57.702;11.904;2023-05-07T16:45:18;0.10;;;0.10;;
12127;SDS011;6127;57.702;11.904;2023-05-07T16:47:44;0.10;;;0.10;;
12127;SDS011;6127;57.702;11.904;2023-05-07T16:50:10;0.10;;;0.10;;
12127;SDS011;6127;57.702;11.904;2023-05-07T16:52:36;0.10;;;0.10;;
12127;SDS011;6127;57.702;11.904;2023-05-07T16:55:02;0.17;;;0.17;;
12127;SDS011;6127;57.702;11.904;2023-05-07T16:57:28;0.13;;;0.13;;
12127;SDS011;6127;57.702;11.904;2023-05-07T16:59:54;0.10;;;0.10;;
12127;SDS011;6127;57.702;11.904;2023-05-07T17:02:21;0.10;;;0.10;;
12127;SDS011;6127;57.702;11.904;2023-05-07T17:04:47;0.10;;;0.10;;
12127;SDS011;6127;57.702;11.904;2023-05-07T17:23:13;0.30;;;0.30;;
12127;SDS011;6127;57.702;11.904;2023-05-07T17:25:39;0.20;;;0.20;;
12127;SDS011;6127;57.702;11.904;2023-05-07T17:28:09;0.20;;;0.20;;
12127;SDS011;6127;57.702;11.904;2023-05-07T17:30:35;0.10;;;0.10;;
12127;SDS011;6127;57.702;11.904;2023-05-07T17:33:01;0.10;;;0.10;;
12127;SDS011;6127;57.702;11.904;2023-05-07T17:35:27;0.20;;;0.20;;
12127;SDS011;6127;57.702;11.904;2023-05-07T17:37:55;0.30;;;0.30;;
12127;SDS011;6127;57.702;11.904;2023-05-07T17:40:21;0.30;;;0.30;;
12127;SDS011;6127;57.702;11.904;2023-05-07T17:42:48;0.20;;;0.20;;
12127;SDS011;6127;57.702;11.904;2023-05-07T17:45:14;0.20;;;0.20;;
12127;SDS011;6127;57.702;11.904;2023-05-07T17:47:40;0.20;;;0.20;;
12127;SDS011;6127;57.702;11.904;2023-05-07T17:50:06;0.30;;;0.30;;
12127;SDS011;6127;57.702;11.904;2023-05-07T17:52:35;0.20;;;0.20;;
12127;SDS011;6127;57.702;11.904;2023-05-07T17:55:01;0.13;;;0.13;;
12127;SDS011;6127;57.702;11.904;2023-05-07T17:57:27;0.30;;;0.30;;
12127;SDS011;6127;57.702;11.904;2023-05-07T17:59:55;0.20;;;0.20;;
12127;SDS011;6127;57.702;11.904;2023-05-07T18:02:21;0.20;;;0.20;;
12127;SDS011;6127;57.702;11.904;2023-05-07T18:04:47;0.30;;;0.30;;